sensor_id;sensor_type;location;lat;lon;timestamp;P1;durP1;ratioP1;P2;durP2;ratioP2
69485;SDS011;56677;51.710;5.366;2023-07-20T04:00:31;3.75;;;2.03;;
69485;SDS011;56677;51.710;5.366;2023-07-20T04:02:56;2.60;;;1.83;;
69485;SDS011;56677;51.710;5.366;2023-07-20T04:05:21;2.28;;;1.60;;
69485;SDS011;56677;51.710;5.366;2023-07-20T04:07:46;2.85;;;1.90;;
69485;SDS011;56677;51.710;5.366;2023-07-20T04:10:11;2.73;;;1.80;;
69485;SDS011;56677;51.710;5.366;2023-07-20T04:12:36;2.13;;;1.45;;
69485;SDS011;56677;51.710;5.366;2023-07-20T04:15:01;3.40;;;1.83;;
69485;SDS011;56677;51.710;5.366;2023-07-20T04:17:27;2.07;;;1.57;;
69485;SDS011;56677;51.710;5.366;2023-07-20T04:19:52;2.95;;;1.75;;
69485;SDS011;56677;51.710;5.366;2023-07-20T04:22:17;2.38;;;1.50;;
69485;SDS011;56677;51.710;5.366;2023-07-20T04:24:42;3.28;;;1.50;;
69485;SDS011;56677;51.710;5.366;2023-07-20T04:27:07;4.40;;;1.50;;
69485;SDS011;56677;51.710;5.366;2023-07-20T04:29:32;2.17;;;1.40;;
69485;SDS011;56677;51.710;5.366;2023-07-20T04:31:58;3.63;;;1.30;;
69485;SDS011;56677;51.710;5.366;2023-07-20T04:34:23;3.20;;;1.80;;
69485;SDS011;56677;51.710;5.366;2023-07-20T04:36:48;2.65;;;1.83;;
69485;SDS011;56677;51.710;5.366;2023-07-20T04:39:13;3.05;;;1.42;;
69485;SDS011;56677;51.710;5.366;2023-07-20T04:41:38;2.05;;;1.40;;
69485;SDS011;56677;51.710;5.366;2023-07-20T04:44:03;2.65;;;1.50;;
69485;SDS011;56677;51.710;5.366;2023-07-20T04:46:28;3.33;;;1.50;;
69485;SDS011;56677;51.710;5.366;2023-07-20T04:48:53;2.95;;;1.55;;
69485;SDS011;56677;51.710;5.366;2023-07-20T04:51:19;2.30;;;1.40;;
69485;SDS011;56677;51.710;5.366;2023-07-20T04:53:44;3.10;;;1.53;;
69485;SDS011;56677;51.710;5.366;2023-07-20T04:56:09;2.55;;;1.38;;
69485;SDS011;56677;51.710;5.366;2023-07-20T04:58:34;2.67;;;1.40;;
69485;SDS011;56677;51.710;5.366;2023-07-20T05:00:59;2.17;;;1.20;;
69485;SDS011;56677;51.710;5.366;2023-07-20T05:03:24;2.90;;;1.52;;
69485;SDS011;56677;51.710;5.366;2023-07-20T05:05:49;3.45;;;1.60;;
69485;SDS011;56677;51.710;5.366;2023-07-20T05:08:15;2.10;;;1.40;;
69485;SDS011;56677;51.710;5.366;2023-07-20T05:10:40;3.77;;;1.90;;
69485;SDS011;56677;51.710;5.366;2023-07-20T05:13:05;2.47;;;1.20;;
69485;SDS011;56677;51.710;5.366;2023-07-20T05:15:32;2.77;;;1.40;;
69485;SDS011;56677;51.710;5.366;2023-07-20T05:17:57;2.20;;;1.38;;
69485;SDS011;56677;51.710;5.366;2023-07-20T05:20:22;2.70;;;1.45;;
69485;SDS011;56677;51.710;5.366;2023-07-20T05:22:48;2.83;;;1.50;;
69485;SDS011;56677;51.710;5.366;2023-07-20T05:25:13;2.60;;;1.20;;
69485;SDS011;56677;51.710;5.366;2023-07-20T05:27:38;2.05;;;1.40;;
69485;SDS011;56677;51.710;5.366;2023-07-20T05:30:04;4.87;;;1.33;;
69485;SDS011;56677;51.710;5.366;2023-07-20T05:32:29;2.80;;;1.60;;
69485;SDS011;56677;51.710;5.366;2023-07-20T05:34:54;2.35;;;1.42;;
69485;SDS011;56677;51.710;5.366;2023-07-20T05:37:20;3.27;;;1.33;;
69485;SDS011;56677;51.710;5.366;2023-07-20T05:39:45;4.10;;;1.40;;
69485;SDS011;56677;51.710;5.366;2023-07-20T05:42:10;2.30;;;1.10;;
69485;SDS011;56677;51.710;5.366;2023-07-20T05:44:35;2.60;;;1.17;;
69485;SDS011;56677;51.710;5.366;2023-07-20T05:47:00;3.57;;;1.30;;
69485;SDS011;56677;51.710;5.366;2023-07-20T05:49:27;2.33;;;1.30;;
69485;SDS011;56677;51.710;5.366;2023-07-20T05:51:52;2.70;;;1.40;;
69485;SDS011;56677;51.710;5.366;2023-07-20T05:54:17;2.70;;;1.10;;
69485;SDS011;56677;51.710;5.366;2023-07-20T05:56:42;3.67;;;1.52;;
69485;SDS011;56677;51.710;5.366;2023-07-20T05:59:07;2.60;;;1.15;;
69485;SDS011;56677;51.710;5.366;2023-07-20T06:01:32;6.03;;;1.70;;
69485;SDS011;56677;51.710;5.366;2023-07-20T06:03:57;5.05;;;2.05;;
69485;SDS011;56677;51.710;5.366;2023-07-20T06:06:23;5.38;;;2.30;;
69485;SDS011;56677;51.710;5.366;2023-07-20T06:08:48;9.13;;;2.80;;
69485;SDS011;56677;51.710;5.366;2023-07-20T06:11:13;5.82;;;2.15;;
69485;SDS011;56677;51.710;5.366;2023-07-20T06:13:38;8.03;;;2.60;;
69485;SDS011;56677;51.710;5.366;2023-07-20T06:16:03;6.95;;;2.25;;
69485;SDS011;56677;51.710;5.366;2023-07-20T06:18:28;5.38;;;2.30;;
69485;SDS011;56677;51.710;5.366;2023-07-20T06:20:54;5.83;;;2.60;;
69485;SDS011;56677;51.710;5.366;2023-07-20T06:23:19;6.57;;;2.15;;
69485;SDS011;56677;51.710;5.366;2023-07-20T06:25:44;6.35;;;2.15;;
69485;SDS011;56677;51.710;5.366;2023-07-20T06:28:09;4.53;;;2.20;;
69485;SDS011;56677;51.710;5.366;2023-07-20T06:30:34;6.90;;;2.20;;
69485;SDS011;56677;51.710;5.366;2023-07-20T06:32:59;6.37;;;1.93;;
69485;SDS011;56677;51.710;5.366;2023-07-20T06:35:25;5.30;;;1.90;;
69485;SDS011;56677;51.710;5.366;2023-07-20T06:37:50;4.23;;;1.93;;
69485;SDS011;56677;51.710;5.366;2023-07-20T06:40:15;6.28;;;2.03;;
69485;SDS011;56677;51.710;5.366;2023-07-20T06:42:40;5.60;;;2.50;;
69485;SDS011;56677;51.710;5.366;2023-07-20T06:45:05;5.28;;;1.73;;
69485;SDS011;56677;51.710;5.366;2023-07-20T06:47:31;4.73;;;2.07;;
69485;SDS011;56677;51.710;5.366;2023-07-20T06:49:56;4.47;;;2.00;;
69485;SDS011;56677;51.710;5.366;2023-07-20T06:52:21;6.50;;;1.90;;
69485;SDS011;56677;51.710;5.366;2023-07-20T06:54:46;7.18;;;1.77;;
69485;SDS011;56677;51.710;5.366;2023-07-20T06:57:11;7.75;;;2.00;;
69485;SDS011;56677;51.710;5.366;2023-07-20T06:59:36;6.87;;;1.70;;
69485;SDS011;56677;51.710;5.366;2023-07-20T07:02:01;5.22;;;1.60;;
69485;SDS011;56677;51.710;5.366;2023-07-20T07:04:27;5.43;;;1.73;;
69485;SDS011;56677;51.710;5.366;2023-07-20T07:06:52;7.80;;;1.88;;
69485;SDS011;56677;51.710;5.366;2023-07-20T07:09:17;5.38;;;2.05;;
69485;SDS011;56677;51.710;5.366;2023-07-20T07:11:42;6.67;;;2.03;;
69485;SDS011;56677;51.710;5.366;2023-07-20T07:14:07;5.15;;;1.80;;
69485;SDS011;56677;51.710;5.366;2023-07-20T07:16:32;8.45;;;1.90;;
69485;SDS011;56677;51.710;5.366;2023-07-20T07:18:57;4.77;;;1.57;;
69485;SDS011;56677;51.710;5.366;2023-07-20T07:21:22;9.07;;;2.27;;
69485;SDS011;56677;51.710;5.366;2023-07-20T07:23:48;7.15;;;1.88;;
69485;SDS011;56677;51.710;5.366;2023-07-20T07:26:13;6.33;;;1.80;;
69485;SDS011;56677;51.710;5.366;2023-07-20T07:28:38;6.40;;;1.63;;
69485;SDS011;56677;51.710;5.366;2023-07-20T07:31:06;7.30;;;1.77;;
69485;SDS011;56677;51.710;5.366;2023-07-20T07:33:31;5.43;;;1.40;;
69485;SDS011;56677;51.710;5.366;2023-07-20T07:35:57;6.30;;;1.40;;
69485;SDS011;56677;51.710;5.366;2023-07-20T07:38:22;3.33;;;1.33;;
69485;SDS011;56677;51.710;5.366;2023-07-20T07:40:47;5.50;;;1.60;;
69485;SDS011;56677;51.710;5.366;2023-07-20T07:43:12;4.10;;;1.55;;
69485;SDS011;56677;51.710;5.366;2023-07-20T07:45:37;5.00;;;1.85;;
69485;SDS011;56677;51.710;5.366;2023-07-20T07:48:02;8.15;;;1.88;;
69485;SDS011;56677;51.710;5.366;2023-07-20T07:50:28;8.37;;;1.50;;
69485;SDS011;56677;51.710;5.366;2023-07-20T07:52:53;5.40;;;1.85;;
69485;SDS011;56677;51.710;5.366;2023-07-20T07:55:18;4.93;;;1.42;;
69485;SDS011;56677;51.710;5.366;2023-07-20T07:57:43;5.28;;;1.60;;
69485;SDS011;56677;51.710;5.366;2023-07-20T08:00:08;7.00;;;2.10;;
69485;SDS011;56677;51.710;5.366;2023-07-20T08:02:34;3.83;;;1.80;;
69485;SDS011;56677;51.710;5.366;2023-07-20T08:04:59;8.23;;;2.10;;
69485;SDS011;56677;51.710;5.366;2023-07-20T08:07:24;6.30;;;1.73;;
69485;SDS011;56677;51.710;5.366;2023-07-20T08:09:49;6.47;;;1.60;;
69485;SDS011;56677;51.710;5.366;2023-07-20T08:12:14;4.57;;;1.27;;
69485;SDS011;56677;51.710;5.366;2023-07-20T08:14:39;4.88;;;1.48;;
69485;SDS011;56677;51.710;5.366;2023-07-20T08:17:04;4.23;;;1.70;;
69485;SDS011;56677;51.710;5.366;2023-07-20T08:19:29;10.57;;;1.40;;
69485;SDS011;56677;51.710;5.366;2023-07-20T08:21:54;6.28;;;1.35;;
69485;SDS011;56677;51.710;5.366;2023-07-20T08:24:20;4.72;;;1.50;;
69485;SDS011;56677;51.710;5.366;2023-07-20T08:26:45;3.42;;;1.17;;
69485;SDS011;56677;51.710;5.366;2023-07-20T08:29:10;3.20;;;1.63;;
69485;SDS011;56677;51.710;5.366;2023-07-20T08:31:35;2.45;;;1.00;;
69485;SDS011;56677;51.710;5.366;2023-07-20T08:34:00;2.58;;;1.00;;
69485;SDS011;56677;51.710;5.366;2023-07-20T08:36:26;2.60;;;1.00;;
69485;SDS011;56677;51.710;5.366;2023-07-20T08:38:51;2.30;;;1.25;;
69485;SDS011;56677;51.710;5.366;2023-07-20T08:41:16;4.22;;;1.23;;
69485;SDS011;56677;51.710;5.366;2023-07-20T08:43:41;2.40;;;1.00;;
69485;SDS011;56677;51.710;5.366;2023-07-20T08:46:07;2.25;;;1.13;;
69485;SDS011;56677;51.710;5.366;2023-07-20T08:48:32;2.33;;;1.10;;
69485;SDS011;56677;51.710;5.366;2023-07-20T08:50:58;3.10;;;1.20;;
69485;SDS011;56677;51.710;5.366;2023-07-20T08:53:23;4.03;;;1.30;;
69485;SDS011;56677;51.710;5.366;2023-07-20T08:55:49;2.30;;;1.25;;
69485;SDS011;56677;51.710;5.366;2023-07-20T08:58:15;2.60;;;1.20;;
69485;SDS011;56677;51.710;5.366;2023-07-20T09:00:40;2.80;;;1.40;;
69485;SDS011;56677;51.710;5.366;2023-07-20T09:03:05;1.80;;;1.20;;
69485;SDS011;56677;51.710;5.366;2023-07-20T09:05:31;2.80;;;1.47;;
69485;SDS011;56677;51.710;5.366;2023-07-20T09:07:56;2.47;;;1.50;;
69485;SDS011;56677;51.710;5.366;2023-07-20T09:10:22;2.77;;;1.30;;
69485;SDS011;56677;51.710;5.366;2023-07-20T09:12:47;1.67;;;1.00;;
69485;SDS011;56677;51.710;5.366;2023-07-20T09:15:12;2.88;;;1.40;;
69485;SDS011;56677;51.710;5.366;2023-07-20T09:17:37;2.72;;;1.42;;
69485;SDS011;56677;51.710;5.366;2023-07-20T09:20:03;2.57;;;1.00;;
69485;SDS011;56677;51.710;5.366;2023-07-20T09:22:31;4.78;;;1.30;;
69485;SDS011;56677;51.710;5.366;2023-07-20T09:24:57;2.30;;;1.20;;
69485;SDS011;56677;51.710;5.366;2023-07-20T09:27:24;1.85;;;1.27;;
69485;SDS011;56677;51.710;5.366;2023-07-20T09:29:54;2.40;;;1.20;;
69485;SDS011;56677;51.710;5.366;2023-07-20T09:32:19;2.22;;;1.30;;
69485;SDS011;56677;51.710;5.366;2023-07-20T09:34:44;1.87;;;1.00;;
69485;SDS011;56677;51.710;5.366;2023-07-20T09:37:10;2.35;;;1.15;;
69485;SDS011;56677;51.710;5.366;2023-07-20T09:39:42;2.33;;;1.50;;
69485;SDS011;56677;51.710;5.366;2023-07-20T09:42:07;1.85;;;1.25;;
69485;SDS011;56677;51.710;5.366;2023-07-20T09:44:32;2.93;;;1.20;;
69485;SDS011;56677;51.710;5.366;2023-07-20T09:46:57;2.93;;;1.40;;
69485;SDS011;56677;51.710;5.366;2023-07-20T09:49:22;3.70;;;1.40;;
69485;SDS011;56677;51.710;5.366;2023-07-20T09:51:47;2.67;;;1.38;;
69485;SDS011;56677;51.710;5.366;2023-07-20T09:54:13;2.33;;;1.23;;
69485;SDS011;56677;51.710;5.366;2023-07-20T09:56:38;2.30;;;1.20;;
69485;SDS011;56677;51.710;5.366;2023-07-20T09:59:04;2.00;;;1.10;;
69485;SDS011;56677;51.710;5.366;2023-07-20T10:01:29;3.22;;;1.50;;
69485;SDS011;56677;51.710;5.366;2023-07-20T10:03:54;2.00;;;1.60;;
69485;SDS011;56677;51.710;5.366;2023-07-20T10:06:23;2.65;;;1.50;;
69485;SDS011;56677;51.710;5.366;2023-07-20T10:08:48;2.13;;;1.20;;
69485;SDS011;56677;51.710;5.366;2023-07-20T10:11:15;7.22;;;1.48;;
69485;SDS011;56677;51.710;5.366;2023-07-20T10:13:40;3.85;;;1.30;;
69485;SDS011;56677;51.710;5.366;2023-07-20T10:16:10;3.60;;;1.60;;
69485;SDS011;56677;51.710;5.366;2023-07-20T10:18:43;2.33;;;1.60;;
69485;SDS011;56677;51.710;5.366;2023-07-20T10:21:09;3.58;;;1.40;;
69485;SDS011;56677;51.710;5.366;2023-07-20T10:23:34;2.35;;;1.40;;
69485;SDS011;56677;51.710;5.366;2023-07-20T10:26:00;2.70;;;1.50;;
69485;SDS011;56677;51.710;5.366;2023-07-20T10:28:26;2.40;;;1.48;;
69485;SDS011;56677;51.710;5.366;2023-07-20T10:30:51;2.93;;;1.50;;
69485;SDS011;56677;51.710;5.366;2023-07-20T10:33:16;2.37;;;1.70;;
69485;SDS011;56677;51.710;5.366;2023-07-20T10:38:16;1.73;;;1.23;;
69485;SDS011;56677;51.710;5.366;2023-07-20T10:40:41;4.72;;;1.63;;
69485;SDS011;56677;51.710;5.366;2023-07-20T10:43:07;3.17;;;1.65;;
69485;SDS011;56677;51.710;5.366;2023-07-20T10:48:03;2.17;;;1.50;;
69485;SDS011;56677;51.710;5.366;2023-07-20T10:50:29;2.53;;;1.90;;
69485;SDS011;56677;51.710;5.366;2023-07-20T10:53:04;2.73;;;1.80;;
69485;SDS011;56677;51.710;5.366;2023-07-20T10:55:29;2.58;;;1.40;;
69485;SDS011;56677;51.710;5.366;2023-07-20T10:58:10;2.70;;;1.80;;
69485;SDS011;56677;51.710;5.366;2023-07-20T11:00:35;3.00;;;1.67;;
69485;SDS011;56677;51.710;5.366;2023-07-20T11:03:01;2.50;;;1.60;;
69485;SDS011;56677;51.710;5.366;2023-07-20T11:05:38;3.63;;;1.50;;
69485;SDS011;56677;51.710;5.366;2023-07-20T11:08:04;1.87;;;1.30;;
69485;SDS011;56677;51.710;5.366;2023-07-20T11:10:30;3.05;;;1.45;;
69485;SDS011;56677;51.710;5.366;2023-07-20T11:18:11;2.70;;;1.63;;
69485;SDS011;56677;51.710;5.366;2023-07-20T11:20:36;4.07;;;1.83;;
69485;SDS011;56677;51.710;5.366;2023-07-20T11:23:01;2.85;;;1.90;;
69485;SDS011;56677;51.710;5.366;2023-07-20T11:25:35;3.30;;;1.60;;
69485;SDS011;56677;51.710;5.366;2023-07-20T11:28:00;2.78;;;1.73;;
69485;SDS011;56677;51.710;5.366;2023-07-20T11:30:25;3.13;;;1.90;;
69485;SDS011;56677;51.710;5.366;2023-07-20T11:32:51;2.72;;;1.90;;
69485;SDS011;56677;51.710;5.366;2023-07-20T11:35:16;2.30;;;1.63;;
69485;SDS011;56677;51.710;5.366;2023-07-20T11:37:41;2.20;;;1.60;;
69485;SDS011;56677;51.710;5.366;2023-07-20T11:40:06;3.17;;;1.40;;
69485;SDS011;56677;51.710;5.366;2023-07-20T11:42:32;2.40;;;1.60;;
69485;SDS011;56677;51.710;5.366;2023-07-20T11:44:57;2.67;;;1.60;;
69485;SDS011;56677;51.710;5.366;2023-07-20T11:47:22;3.47;;;2.00;;
69485;SDS011;56677;51.710;5.366;2023-07-20T11:49:53;2.63;;;1.73;;
69485;SDS011;56677;51.710;5.366;2023-07-20T11:52:19;2.15;;;1.40;;
69485;SDS011;56677;51.710;5.366;2023-07-20T11:54:44;2.23;;;1.67;;
69485;SDS011;56677;51.710;5.366;2023-07-20T11:57:16;3.07;;;1.77;;
69485;SDS011;56677;51.710;5.366;2023-07-20T11:59:52;5.30;;;1.90;;
69485;SDS011;56677;51.710;5.366;2023-07-20T12:02:17;7.40;;;1.52;;
69485;SDS011;56677;51.710;5.366;2023-07-20T12:04:42;3.13;;;1.90;;
69485;SDS011;56677;51.710;5.366;2023-07-20T12:07:07;4.77;;;1.70;;
69485;SDS011;56677;51.710;5.366;2023-07-20T12:09:33;2.20;;;1.70;;
69485;SDS011;56677;51.710;5.366;2023-07-20T12:11:58;2.28;;;1.52;;
69485;SDS011;56677;51.710;5.366;2023-07-20T12:14:24;3.35;;;1.55;;
69485;SDS011;56677;51.710;5.366;2023-07-20T12:16:53;2.85;;;1.50;;
69485;SDS011;56677;51.710;5.366;2023-07-20T12:19:18;3.38;;;1.65;;
69485;SDS011;56677;51.710;5.366;2023-07-20T12:21:43;3.20;;;1.77;;
69485;SDS011;56677;51.710;5.366;2023-07-20T12:24:08;2.10;;;1.40;;
69485;SDS011;56677;51.710;5.366;2023-07-20T12:26:35;3.35;;;2.30;;
69485;SDS011;56677;51.710;5.366;2023-07-20T12:29:00;3.40;;;1.80;;
69485;SDS011;56677;51.710;5.366;2023-07-20T12:31:26;2.90;;;1.63;;
69485;SDS011;56677;51.710;5.366;2023-07-20T12:33:51;1.90;;;1.48;;
69485;SDS011;56677;51.710;5.366;2023-07-20T12:36:17;3.83;;;1.80;;
69485;SDS011;56677;51.710;5.366;2023-07-20T12:38:42;2.20;;;1.50;;
69485;SDS011;56677;51.710;5.366;2023-07-20T12:41:09;4.13;;;2.15;;
69485;SDS011;56677;51.710;5.366;2023-07-20T12:43:34;3.00;;;1.80;;
69485;SDS011;56677;51.710;5.366;2023-07-20T12:45:59;4.70;;;1.83;;
69485;SDS011;56677;51.710;5.366;2023-07-20T12:48:24;2.80;;;1.53;;
69485;SDS011;56677;51.710;5.366;2023-07-20T12:50:50;2.95;;;2.00;;
69485;SDS011;56677;51.710;5.366;2023-07-20T12:53:15;2.70;;;1.80;;
69485;SDS011;56677;51.710;5.366;2023-07-20T12:55:40;2.57;;;1.70;;
69485;SDS011;56677;51.710;5.366;2023-07-20T12:58:06;4.13;;;1.85;;
69485;SDS011;56677;51.710;5.366;2023-07-20T13:00:31;3.70;;;1.70;;
69485;SDS011;56677;51.710;5.366;2023-07-20T13:02:56;3.03;;;2.00;;
69485;SDS011;56677;51.710;5.366;2023-07-20T13:05:21;3.70;;;1.65;;
69485;SDS011;56677;51.710;5.366;2023-07-20T13:07:47;4.10;;;1.80;;
69485;SDS011;56677;51.710;5.366;2023-07-20T13:10:12;3.67;;;1.88;;
69485;SDS011;56677;51.710;5.366;2023-07-20T13:12:37;3.57;;;1.80;;
69485;SDS011;56677;51.710;5.366;2023-07-20T13:15:03;4.20;;;1.40;;
69485;SDS011;56677;51.710;5.366;2023-07-20T13:17:29;3.05;;;1.42;;
69485;SDS011;56677;51.710;5.366;2023-07-20T13:19:54;3.40;;;1.55;;
69485;SDS011;56677;51.710;5.366;2023-07-20T13:22:20;3.10;;;1.37;;
69485;SDS011;56677;51.710;5.366;2023-07-20T13:24:45;3.28;;;1.60;;
69485;SDS011;56677;51.710;5.366;2023-07-20T13:27:10;3.83;;;1.40;;
69485;SDS011;56677;51.710;5.366;2023-07-20T13:29:35;3.72;;;1.60;;
69485;SDS011;56677;51.710;5.366;2023-07-20T13:32:01;2.80;;;1.52;;
69485;SDS011;56677;51.710;5.366;2023-07-20T13:34:27;2.80;;;1.38;;
69485;SDS011;56677;51.710;5.366;2023-07-20T13:36:52;2.80;;;1.50;;
69485;SDS011;56677;51.710;5.366;2023-07-20T13:39:17;3.42;;;1.70;;
69485;SDS011;56677;51.710;5.366;2023-07-20T13:41:42;2.60;;;1.35;;
69485;SDS011;56677;51.710;5.366;2023-07-20T13:44:07;4.50;;;1.50;;
69485;SDS011;56677;51.710;5.366;2023-07-20T13:46:33;16.02;;;1.75;;
69485;SDS011;56677;51.710;5.366;2023-07-20T13:48:58;10.00;;;1.50;;
69485;SDS011;56677;51.710;5.366;2023-07-20T13:51:23;8.35;;;1.60;;
69485;SDS011;56677;51.710;5.366;2023-07-20T13:53:48;11.32;;;1.88;;
69485;SDS011;56677;51.710;5.366;2023-07-20T13:56:13;3.33;;;1.42;;
69485;SDS011;56677;51.710;5.366;2023-07-20T13:58:38;6.07;;;1.50;;
69485;SDS011;56677;51.710;5.366;2023-07-20T14:01:03;4.30;;;1.30;;
69485;SDS011;56677;51.710;5.366;2023-07-20T14:03:29;2.40;;;1.27;;
69485;SDS011;56677;51.710;5.366;2023-07-20T14:05:54;3.85;;;1.70;;
69485;SDS011;56677;51.710;5.366;2023-07-20T14:08:19;3.35;;;1.45;;
69485;SDS011;56677;51.710;5.366;2023-07-20T14:10:44;3.70;;;1.70;;
69485;SDS011;56677;51.710;5.366;2023-07-20T14:13:09;2.58;;;1.45;;
69485;SDS011;56677;51.710;5.366;2023-07-20T14:15:34;2.10;;;1.60;;
69485;SDS011;56677;51.710;5.366;2023-07-20T14:17:59;5.20;;;1.60;;
69485;SDS011;56677;51.710;5.366;2023-07-20T14:20:25;3.85;;;1.50;;
69485;SDS011;56677;51.710;5.366;2023-07-20T14:22:50;4.37;;;1.83;;
69485;SDS011;56677;51.710;5.366;2023-07-20T14:25:15;2.97;;;1.63;;
69485;SDS011;56677;51.710;5.366;2023-07-20T14:27:40;4.77;;;1.70;;
69485;SDS011;56677;51.710;5.366;2023-07-20T14:30:05;4.38;;;1.92;;
69485;SDS011;56677;51.710;5.366;2023-07-20T14:32:31;6.90;;;2.07;;
69485;SDS011;56677;51.710;5.366;2023-07-20T14:34:56;8.95;;;2.30;;
69485;SDS011;56677;51.710;5.366;2023-07-20T14:37:21;4.68;;;2.10;;
69485;SDS011;56677;51.710;5.366;2023-07-20T14:39:46;3.15;;;1.73;;
69485;SDS011;56677;51.710;5.366;2023-07-20T14:42:11;4.73;;;2.00;;
69485;SDS011;56677;51.710;5.366;2023-07-20T14:44:36;6.43;;;1.77;;
69485;SDS011;56677;51.710;5.366;2023-07-20T14:47:02;2.38;;;1.70;;
69485;SDS011;56677;51.710;5.366;2023-07-20T14:49:27;5.07;;;1.63;;
69485;SDS011;56677;51.710;5.366;2023-07-20T14:51:52;4.25;;;1.90;;
69485;SDS011;56677;51.710;5.366;2023-07-20T14:54:17;4.43;;;1.50;;
69485;SDS011;56677;51.710;5.366;2023-07-20T14:56:48;5.47;;;1.60;;
69485;SDS011;56677;51.710;5.366;2023-07-20T14:59:14;2.28;;;1.50;;
69485;SDS011;56677;51.710;5.366;2023-07-20T15:01:39;12.38;;;2.95;;
69485;SDS011;56677;51.710;5.366;2023-07-20T15:04:04;11.25;;;2.72;;
69485;SDS011;56677;51.710;5.366;2023-07-20T15:06:29;10.30;;;3.40;;
69485;SDS011;56677;51.710;5.366;2023-07-20T15:08:54;10.40;;;3.22;;
69485;SDS011;56677;51.710;5.366;2023-07-20T15:11:19;8.88;;;2.65;;
69485;SDS011;56677;51.710;5.366;2023-07-20T15:13:44;7.80;;;2.53;;
69485;SDS011;56677;51.710;5.366;2023-07-20T15:16:10;6.60;;;2.30;;
69485;SDS011;56677;51.710;5.366;2023-07-20T15:18:35;4.60;;;2.10;;
69485;SDS011;56677;51.710;5.366;2023-07-20T15:21:00;5.63;;;2.33;;
69485;SDS011;56677;51.710;5.366;2023-07-20T15:23:25;5.37;;;2.17;;
69485;SDS011;56677;51.710;5.366;2023-07-20T15:25:50;5.10;;;2.40;;
69485;SDS011;56677;51.710;5.366;2023-07-20T15:28:15;7.57;;;2.75;;
69485;SDS011;56677;51.710;5.366;2023-07-20T15:30:40;12.60;;;2.70;;
69485;SDS011;56677;51.710;5.366;2023-07-20T15:33:05;4.22;;;2.30;;
69485;SDS011;56677;51.710;5.366;2023-07-20T15:35:30;4.20;;;1.90;;
69485;SDS011;56677;51.710;5.366;2023-07-20T15:37:56;6.17;;;2.07;;
69485;SDS011;56677;51.710;5.366;2023-07-20T15:40:21;3.80;;;2.00;;
69485;SDS011;56677;51.710;5.366;2023-07-20T15:42:46;9.07;;;2.08;;
69485;SDS011;56677;51.710;5.366;2023-07-20T15:45:12;6.80;;;2.10;;
69485;SDS011;56677;51.710;5.366;2023-07-20T15:47:37;7.07;;;1.88;;
69485;SDS011;56677;51.710;5.366;2023-07-20T15:50:02;5.38;;;2.10;;
69485;SDS011;56677;51.710;5.366;2023-07-20T15:52:28;4.68;;;1.77;;
69485;SDS011;56677;51.710;5.366;2023-07-20T15:54:53;4.43;;;1.70;;
69485;SDS011;56677;51.710;5.366;2023-07-20T15:57:18;5.35;;;1.85;;
69485;SDS011;56677;51.710;5.366;2023-07-20T15:59:43;3.63;;;2.07;;
69485;SDS011;56677;51.710;5.366;2023-07-20T16:02:08;3.85;;;2.17;;
69485;SDS011;56677;51.710;5.366;2023-07-20T16:04:33;6.13;;;2.27;;
69485;SDS011;56677;51.710;5.366;2023-07-20T16:06:59;4.77;;;2.07;;
69485;SDS011;56677;51.710;5.366;2023-07-20T16:09:24;3.78;;;1.80;;
69485;SDS011;56677;51.710;5.366;2023-07-20T16:11:49;4.95;;;2.10;;
69485;SDS011;56677;51.710;5.366;2023-07-20T16:14:14;4.00;;;1.70;;
69485;SDS011;56677;51.710;5.366;2023-07-20T16:16:39;3.72;;;1.77;;
69485;SDS011;56677;51.710;5.366;2023-07-20T16:19:04;3.50;;;1.90;;
69485;SDS011;56677;51.710;5.366;2023-07-20T16:21:29;3.17;;;1.90;;
69485;SDS011;56677;51.710;5.366;2023-07-20T16:23:54;4.13;;;2.05;;
69485;SDS011;56677;51.710;5.366;2023-07-20T16:26:20;4.82;;;2.30;;
69485;SDS011;56677;51.710;5.366;2023-07-20T16:28:45;4.40;;;2.00;;
69485;SDS011;56677;51.710;5.366;2023-07-20T16:31:10;5.60;;;2.40;;
69485;SDS011;56677;51.710;5.366;2023-07-20T16:33:36;4.60;;;1.73;;
69485;SDS011;56677;51.710;5.366;2023-07-20T16:36:01;3.03;;;1.80;;
69485;SDS011;56677;51.710;5.366;2023-07-20T16:38:27;3.50;;;2.47;;
69485;SDS011;56677;51.710;5.366;2023-07-20T16:40:55;3.50;;;1.83;;
69485;SDS011;56677;51.710;5.366;2023-07-20T16:43:20;4.03;;;1.92;;
69485;SDS011;56677;51.710;5.366;2023-07-20T16:45:45;6.77;;;2.00;;
69485;SDS011;56677;51.710;5.366;2023-07-20T16:48:10;3.22;;;1.80;;
69485;SDS011;56677;51.710;5.366;2023-07-20T16:50:35;4.53;;;2.40;;
69485;SDS011;56677;51.710;5.366;2023-07-20T16:53:01;7.23;;;2.10;;
69485;SDS011;56677;51.710;5.366;2023-07-20T16:55:26;3.00;;;2.23;;
69485;SDS011;56677;51.710;5.366;2023-07-20T16:57:51;5.45;;;2.10;;
69485;SDS011;56677;51.710;5.366;2023-07-20T17:00:16;5.97;;;2.17;;
69485;SDS011;56677;51.710;5.366;2023-07-20T17:02:41;6.03;;;1.90;;
69485;SDS011;56677;51.710;5.366;2023-07-20T17:05:07;4.25;;;2.10;;
69485;SDS011;56677;51.710;5.366;2023-07-20T17:07:32;5.67;;;2.40;;
69485;SDS011;56677;51.710;5.366;2023-07-20T17:09:57;16.20;;;4.15;;
69485;SDS011;56677;51.710;5.366;2023-07-20T17:12:22;5.10;;;2.07;;
69485;SDS011;56677;51.710;5.366;2023-07-20T17:14:47;5.83;;;2.23;;
69485;SDS011;56677;51.710;5.366;2023-07-20T17:17:12;6.75;;;2.45;;
69485;SDS011;56677;51.710;5.366;2023-07-20T17:19:37;3.87;;;2.27;;
69485;SDS011;56677;51.710;5.366;2023-07-20T17:22:03;6.53;;;2.03;;
69485;SDS011;56677;51.710;5.366;2023-07-20T17:24:28;7.70;;;2.17;;
69485;SDS011;56677;51.710;5.366;2023-07-20T17:26:53;4.75;;;2.15;;
69485;SDS011;56677;51.710;5.366;2023-07-20T17:29:18;4.35;;;1.85;;
69485;SDS011;56677;51.710;5.366;2023-07-20T17:31:43;5.32;;;1.65;;
69485;SDS011;56677;51.710;5.366;2023-07-20T17:34:08;5.40;;;2.13;;
69485;SDS011;56677;51.710;5.366;2023-07-20T17:36:34;5.05;;;1.67;;
69485;SDS011;56677;51.710;5.366;2023-07-20T17:38:59;4.45;;;1.83;;
69485;SDS011;56677;51.710;5.366;2023-07-20T17:41:24;8.52;;;1.90;;
69485;SDS011;56677;51.710;5.366;2023-07-20T17:43:49;5.80;;;1.80;;
69485;SDS011;56677;51.710;5.366;2023-07-20T17:46:14;5.78;;;2.05;;
69485;SDS011;56677;51.710;5.366;2023-07-20T17:48:39;5.93;;;2.13;;
69485;SDS011;56677;51.710;5.366;2023-07-20T17:51:04;3.57;;;1.70;;
69485;SDS011;56677;51.710;5.366;2023-07-20T17:53:29;5.10;;;1.80;;
69485;SDS011;56677;51.710;5.366;2023-07-20T17:55:55;3.57;;;1.60;;
69485;SDS011;56677;51.710;5.366;2023-07-20T17:58:20;5.43;;;1.80;;
69485;SDS011;56677;51.710;5.366;2023-07-20T18:00:45;2.20;;;1.50;;
69485;SDS011;56677;51.710;5.366;2023-07-20T18:03:10;4.38;;;1.90;;
69485;SDS011;56677;51.710;5.366;2023-07-20T18:05:35;4.10;;;1.80;;
69485;SDS011;56677;51.710;5.366;2023-07-20T18:08:00;4.57;;;2.10;;
69485;SDS011;56677;51.710;5.366;2023-07-20T18:10:26;4.80;;;2.00;;
69485;SDS011;56677;51.710;5.366;2023-07-20T18:12:51;3.97;;;1.93;;
69485;SDS011;56677;51.710;5.366;2023-07-20T18:15:16;6.25;;;1.90;;
69485;SDS011;56677;51.710;5.366;2023-07-20T18:17:41;5.30;;;1.73;;
69485;SDS011;56677;51.710;5.366;2023-07-20T18:20:07;4.20;;;1.80;;
69485;SDS011;56677;51.710;5.366;2023-07-20T18:22:32;4.60;;;2.10;;
69485;SDS011;56677;51.710;5.366;2023-07-20T18:24:57;7.13;;;1.70;;
69485;SDS011;56677;51.710;5.366;2023-07-20T18:27:22;3.63;;;2.20;;
69485;SDS011;56677;51.710;5.366;2023-07-20T18:29:47;4.10;;;2.40;;
69485;SDS011;56677;51.710;5.366;2023-07-20T18:32:12;3.23;;;1.80;;
69485;SDS011;56677;51.710;5.366;2023-07-20T18:34:38;3.72;;;1.70;;
69485;SDS011;56677;51.710;5.366;2023-07-20T18:37:03;5.55;;;1.85;;
69485;SDS011;56677;51.710;5.366;2023-07-20T18:39:28;6.67;;;1.90;;
69485;SDS011;56677;51.710;5.366;2023-07-20T18:41:53;5.95;;;1.80;;
69485;SDS011;56677;51.710;5.366;2023-07-20T18:44:18;5.80;;;1.67;;
69485;SDS011;56677;51.710;5.366;2023-07-20T18:46:44;6.38;;;1.90;;